sensor_id;sensor_type;location;lat;lon;timestamp;pressure;altitude;pressure_sealevel;temperature
50206;BMP280;36098;48.390;10.856;2023-04-24T00:00:40;95130.44;;;23.41
50206;BMP280;36098;48.390;10.856;2023-04-24T00:03:07;95137.28;;;23.29
50206;BMP280;36098;48.390;10.856;2023-04-24T00:05:36;95133.16;;;23.36
50206;BMP280;36098;48.390;10.856;2023-04-24T00:08:01;95146.84;;;23.38
50206;BMP280;36098;48.390;10.856;2023-04-24T00:10:26;95145.34;;;23.46
50206;BMP280;36098;48.390;10.856;2023-04-24T00:12:52;95144.84;;;23.44
50206;BMP280;36098;48.390;10.856;2023-04-24T00:15:24;95146.72;;;23.43
50206;BMP280;36098;48.390;10.856;2023-04-24T00:17:49;95146.41;;;23.45
50206;BMP280;36098;48.390;10.856;2023-04-24T00:20:14;95149.47;;;23.52
50206;BMP280;36098;48.390;10.856;2023-04-24T00:22:40;95147.91;;;23.51
50206;BMP280;36098;48.390;10.856;2023-04-24T00:25:07;95139.09;;;23.55
50206;BMP280;36098;48.390;10.856;2023-04-24T00:27:33;95144.31;;;23.47
50206;BMP280;36098;48.390;10.856;2023-04-24T00:30:02;95134.03;;;23.45
50206;BMP280;36098;48.390;10.856;2023-04-24T00:32:30;95144.31;;;23.47
50206;BMP280;36098;48.390;10.856;2023-04-24T00:34:58;95143.50;;;23.46
50206;BMP280;36098;48.390;10.856;2023-04-24T00:37:32;95138.22;;;23.46
50206;BMP280;36098;48.390;10.856;2023-04-24T00:40:00;95144.09;;;23.43
50206;BMP280;36098;48.390;10.856;2023-04-24T00:42:28;95129.25;;;23.47
50206;BMP280;36098;48.390;10.856;2023-04-24T00:44:58;95129.84;;;23.44
50206;BMP280;36098;48.390;10.856;2023-04-24T00:47:31;95128.50;;;23.47
50206;BMP280;36098;48.390;10.856;2023-04-24T00:49:57;95132.28;;;23.41
50206;BMP280;36098;48.390;10.856;2023-04-24T00:52:31;95128.88;;;23.40
50206;BMP280;36098;48.390;10.856;2023-04-24T00:55:05;95126.31;;;23.35
50206;BMP280;36098;48.390;10.856;2023-04-24T00:57:30;95119.78;;;23.46
50206;BMP280;36098;48.390;10.856;2023-04-24T00:59:56;95126.13;;;23.45
50206;BMP280;36098;48.390;10.856;2023-04-24T01:02:24;95119.78;;;23.46
50206;BMP280;36098;48.390;10.856;2023-04-24T01:04:54;95118.72;;;23.47
50206;BMP280;36098;48.390;10.856;2023-04-24T01:07:28;95119.91;;;23.41
50206;BMP280;36098;48.390;10.856;2023-04-24T01:09:54;95118.81;;;23.42
50206;BMP280;36098;48.390;10.856;2023-04-24T01:12:21;95120.66;;;23.42
50206;BMP280;36098;48.390;10.856;2023-04-24T01:14:53;95116.78;;;23.39
50206;BMP280;36098;48.390;10.856;2023-04-24T01:17:29;95116.00;;;23.39
50206;BMP280;36098;48.390;10.856;2023-04-24T01:19:57;95111.78;;;23.38
50206;BMP280;36098;48.390;10.856;2023-04-24T01:22:25;95112.88;;;23.37
50206;BMP280;36098;48.390;10.856;2023-04-24T01:24:52;95104.28;;;23.31
50206;BMP280;36098;48.390;10.856;2023-04-24T01:27:18;95106.53;;;23.38
50206;BMP280;36098;48.390;10.856;2023-04-24T01:29:46;95119.00;;;23.46
50206;BMP280;36098;48.390;10.856;2023-04-24T01:32:38;95118.03;;;23.42
50206;BMP280;36098;48.390;10.856;2023-04-24T01:35:13;95116.97;;;23.43
50206;BMP280;36098;48.390;10.856;2023-04-24T01:37:38;95110.25;;;23.37
50206;BMP280;36098;48.390;10.856;2023-04-24T01:40:06;95101.53;;;23.36
50206;BMP280;36098;48.390;10.856;2023-04-24T01:42:34;95101.53;;;23.36
50206;BMP280;36098;48.390;10.856;2023-04-24T01:45:03;95096.00;;;23.38
50206;BMP280;36098;48.390;10.856;2023-04-24T01:47:31;95097.66;;;23.34
50206;BMP280;36098;48.390;10.856;2023-04-24T01:50:00;95091.00;;;23.36
50206;BMP280;36098;48.390;10.856;2023-04-24T01:52:25;95091.59;;;23.33
50206;BMP280;36098;48.390;10.856;2023-04-24T01:54:56;95090.81;;;23.33
50206;BMP280;36098;48.390;10.856;2023-04-24T01:57:33;95084.75;;;23.32
50206;BMP280;36098;48.390;10.856;2023-04-24T02:00:05;95090.53;;;23.34
50206;BMP280;36098;48.390;10.856;2023-04-24T02:02:33;95085.56;;;23.33
50206;BMP280;36098;48.390;10.856;2023-04-24T02:04:59;95087.41;;;23.32
50206;BMP280;36098;48.390;10.856;2023-04-24T02:07:29;95089.94;;;23.24
50206;BMP280;36098;48.390;10.856;2023-04-24T02:09:57;95091.59;;;23.33
50206;BMP280;36098;48.390;10.856;2023-04-24T02:12:31;95084.38;;;23.26
50206;BMP280;36098;48.390;10.856;2023-04-24T02:14:59;95081.75;;;23.26
50206;BMP280;36098;48.390;10.856;2023-04-24T02:17:27;95090.53;;;23.34
50206;BMP280;36098;48.390;10.856;2023-04-24T02:19:53;95091.41;;;23.30
50206;BMP280;36098;48.390;10.856;2023-04-24T02:22:24;95085.47;;;23.25
50206;BMP280;36098;48.390;10.856;2023-04-24T02:24:58;95094.06;;;23.30
50206;BMP280;36098;48.390;10.856;2023-04-24T02:27:26;95094.81;;;23.30
50206;BMP280;36098;48.390;10.856;2023-04-24T02:29:57;95096.09;;;23.33
50206;BMP280;36098;48.390;10.856;2023-04-24T02:32:25;95097.06;;;23.24
50206;BMP280;36098;48.390;10.856;2023-04-24T02:34:50;95096.69;;;23.30
50206;BMP280;36098;48.390;10.856;2023-04-24T02:37:19;95103.50;;;23.31
50206;BMP280;36098;48.390;10.856;2023-04-24T02:39:51;95097.34;;;23.35
50206;BMP280;36098;48.390;10.856;2023-04-24T02:42:19;95101.75;;;23.27
50206;BMP280;36098;48.390;10.856;2023-04-24T02:44:47;95099.00;;;23.31
50206;BMP280;36098;48.390;10.856;2023-04-24T02:47:23;95104.88;;;23.28
50206;BMP280;36098;48.390;10.856;2023-04-24T02:49:53;95109.06;;;23.29
50206;BMP280;36098;48.390;10.856;2023-04-24T02:52:18;95110.72;;;23.26
50206;BMP280;36098;48.390;10.856;2023-04-24T02:54:44;95108.84;;;23.26
50206;BMP280;36098;48.390;10.856;2023-04-24T02:57:12;95102.34;;;23.24
50206;BMP280;36098;48.390;10.856;2023-04-24T02:59:37;95105.63;;;23.16
50206;BMP280;36098;48.390;10.856;2023-04-24T03:02:06;95111.91;;;23.20
50206;BMP280;36098;48.390;10.856;2023-04-24T03:04:43;95106.44;;;23.16
50206;BMP280;36098;48.390;10.856;2023-04-24T03:07:12;95102.94;;;23.21
50206;BMP280;36098;48.390;10.856;2023-04-24T03:09:55;95103.69;;;23.21
50206;BMP280;36098;48.390;10.856;2023-04-24T03:12:23;95112.97;;;23.19
50206;BMP280;36098;48.390;10.856;2023-04-24T03:14:50;95104.06;;;23.15
50206;BMP280;36098;48.390;10.856;2023-04-24T03:17:16;95093.53;;;23.15
50206;BMP280;36098;48.390;10.856;2023-04-24T03:19:46;95101.38;;;23.20
50206;BMP280;36098;48.390;10.856;2023-04-24T03:22:16;95098.72;;;23.20
50206;BMP280;36098;48.390;10.856;2023-04-24T03:24:47;95103.91;;;23.25
50206;BMP280;36098;48.390;10.856;2023-04-24T03:27:12;95102.63;;;23.22
50206;BMP280;36098;48.390;10.856;2023-04-24T03:29:38;95104.47;;;23.22
50206;BMP280;36098;48.390;10.856;2023-04-24T03:32:06;95098.81;;;23.15
50206;BMP280;36098;48.390;10.856;2023-04-24T03:34:41;95095.31;;;23.19
50206;BMP280;36098;48.390;10.856;2023-04-24T03:37:09;95095.69;;;23.13
50206;BMP280;36098;48.390;10.856;2023-04-24T03:39:35;95102.31;;;23.10
50206;BMP280;36098;48.390;10.856;2023-04-24T03:42:03;95095.28;;;23.06
50206;BMP280;36098;48.390;10.856;2023-04-24T03:44:34;95095.84;;;23.03
50206;BMP280;36098;48.390;10.856;2023-04-24T03:47:03;95094.69;;;23.09
50206;BMP280;36098;48.390;10.856;2023-04-24T03:49:31;95094.13;;;23.12
50206;BMP280;36098;48.390;10.856;2023-04-24T03:52:01;95100.88;;;23.18
50206;BMP280;36098;48.390;10.856;2023-04-24T03:54:26;95099.28;;;23.17
50206;BMP280;36098;48.390;10.856;2023-04-24T03:56:54;95102.03;;;23.12
50206;BMP280;36098;48.390;10.856;2023-04-24T03:59:25;95096.34;;;23.05
50206;BMP280;36098;48.390;10.856;2023-04-24T04:01:50;95101.88;;;23.03
50206;BMP280;36098;48.390;10.856;2023-04-24T04:04:18;95095.28;;;23.06
50206;BMP280;36098;48.390;10.856;2023-04-24T04:06:51;95104.00;;;23.20
50206;BMP280;36098;48.390;10.856;2023-04-24T04:09:21;95103.91;;;23.11
50206;BMP280;36098;48.390;10.856;2023-04-24T04:11:47;95102.59;;;23.09
50206;BMP280;36098;48.390;10.856;2023-04-24T04:14:15;95107.16;;;23.03
50206;BMP280;36098;48.390;10.856;2023-04-24T04:16:45;95111.06;;;23.06
50206;BMP280;36098;48.390;10.856;2023-04-24T04:19:11;95105.69;;;23.11
50206;BMP280;36098;48.390;10.856;2023-04-24T04:21:38;95111.50;;;23.13
50206;BMP280;36098;48.390;10.856;2023-04-24T04:24:04;95115.06;;;23.03
50206;BMP280;36098;48.390;10.856;2023-04-24T04:26:32;95113.56;;;22.84
50206;BMP280;36098;48.390;10.856;2023-04-24T04:29:00;95098.25;;;22.86
50206;BMP280;36098;48.390;10.856;2023-04-24T04:31:33;95119.09;;;22.82
50206;BMP280;36098;48.390;10.856;2023-04-24T04:33:58;95113.56;;;22.84
50206;BMP280;36098;48.390;10.856;2023-04-24T04:36:23;95113.66;;;22.79
50206;BMP280;36098;48.390;10.856;2023-04-24T04:38:49;95121.56;;;22.79
50206;BMP280;36098;48.390;10.856;2023-04-24T04:41:14;95120.50;;;22.93
50206;BMP280;36098;48.390;10.856;2023-04-24T04:43:41;95118.34;;;22.82
50206;BMP280;36098;48.390;10.856;2023-04-24T04:46:07;95118.81;;;22.70
50206;BMP280;36098;48.390;10.856;2023-04-24T04:48:33;95120.63;;;22.70
50206;BMP280;36098;48.390;10.856;2023-04-24T04:50:58;95126.97;;;22.69
50206;BMP280;36098;48.390;10.856;2023-04-24T04:53:23;95120.84;;;22.73
50206;BMP280;36098;48.390;10.856;2023-04-24T04:55:49;95127.19;;;22.72
50206;BMP280;36098;48.390;10.856;2023-04-24T04:58:14;95132.44;;;22.72
50206;BMP280;36098;48.390;10.856;2023-04-24T05:00:39;95125.22;;;22.78
50206;BMP280;36098;48.390;10.856;2023-04-24T05:03:04;95125.75;;;22.80
50206;BMP280;36098;48.390;10.856;2023-04-24T05:05:30;95131.50;;;22.82
50206;BMP280;36098;48.390;10.856;2023-04-24T05:07:55;95152.25;;;22.83
50206;BMP280;36098;48.390;10.856;2023-04-24T05:10:20;95141.94;;;22.87
50206;BMP280;36098;48.390;10.856;2023-04-24T05:12:45;95138.00;;;22.71
50206;BMP280;36098;48.390;10.856;2023-04-24T05:15:11;95126.88;;;22.74
50206;BMP280;36098;48.390;10.856;2023-04-24T05:17:36;95135.75;;;22.78
50206;BMP280;36098;48.390;10.856;2023-04-24T05:20:02;95143.09;;;22.81
50206;BMP280;36098;48.390;10.856;2023-04-24T05:22:30;95149.72;;;22.78
50206;BMP280;36098;48.390;10.856;2023-04-24T05:24:55;95145.72;;;22.81
50206;BMP280;36098;48.390;10.856;2023-04-24T05:27:20;95156.25;;;22.81
50206;BMP280;36098;48.390;10.856;2023-04-24T05:29:45;95158.47;;;22.74
50206;BMP280;36098;48.390;10.856;2023-04-24T05:32:11;95153.69;;;22.76
50206;BMP280;36098;48.390;10.856;2023-04-24T05:34:36;95153.63;;;22.81
50206;BMP280;36098;48.390;10.856;2023-04-24T05:37:01;95150.56;;;22.74
50206;BMP280;36098;48.390;10.856;2023-04-24T05:39:27;95158.78;;;22.72
50206;BMP280;36098;48.390;10.856;2023-04-24T05:41:52;95155.06;;;22.73
50206;BMP280;36098;48.390;10.856;2023-04-24T05:44:17;95158.22;;;22.89
50206;BMP280;36098;48.390;10.856;2023-04-24T05:46:42;95160.63;;;22.85
50206;BMP280;36098;48.390;10.856;2023-04-24T05:49:07;95168.03;;;22.83
50206;BMP280;36098;48.390;10.856;2023-04-24T05:51:33;95165.78;;;22.77
50206;BMP280;36098;48.390;10.856;2023-04-24T05:53:58;95161.91;;;22.74
50206;BMP280;36098;48.390;10.856;2023-04-24T05:56:23;95167.16;;;22.74
50206;BMP280;36098;48.390;10.856;2023-04-24T05:58:48;95166.66;;;22.72
50206;BMP280;36098;48.390;10.856;2023-04-24T06:01:14;95173.00;;;22.71
50206;BMP280;36098;48.390;10.856;2023-04-24T06:03:39;95179.81;;;22.72
50206;BMP280;36098;48.390;10.856;2023-04-24T06:06:05;95180.59;;;22.73
50206;BMP280;36098;48.390;10.856;2023-04-24T06:08:30;95179.53;;;22.74
50206;BMP280;36098;48.390;10.856;2023-04-24T06:10:56;95181.97;;;22.70
50206;BMP280;36098;48.390;10.856;2023-04-24T06:13:21;95172.41;;;22.74
50206;BMP280;36098;48.390;10.856;2023-04-24T06:15:46;95177.97;;;22.73
50206;BMP280;36098;48.390;10.856;2023-04-24T06:18:11;95184.28;;;22.72
50206;BMP280;36098;48.390;10.856;2023-04-24T06:20:37;95181.66;;;22.72
50206;BMP280;36098;48.390;10.856;2023-04-24T06:23:02;95179.03;;;22.72
50206;BMP280;36098;48.390;10.856;2023-04-24T06:25:28;95184.78;;;22.74
50206;BMP280;36098;48.390;10.856;2023-04-24T06:27:53;95173.00;;;22.71
50206;BMP280;36098;48.390;10.856;2023-04-24T06:30:19;95176.88;;;22.74
50206;BMP280;36098;48.390;10.856;2023-04-24T06:32:44;95177.09;;;22.77
50206;BMP280;36098;48.390;10.856;2023-04-24T06:35:09;95178.16;;;22.76
50206;BMP280;36098;48.390;10.856;2023-04-24T06:37:36;95183.94;;;22.78
50206;BMP280;36098;48.390;10.856;2023-04-24T06:40:01;95180.81;;;22.76
50206;BMP280;36098;48.390;10.856;2023-04-24T06:42:26;95187.72;;;22.72
50206;BMP280;36098;48.390;10.856;2023-04-24T06:44:52;95199.59;;;22.70
50206;BMP280;36098;48.390;10.856;2023-04-24T06:47:18;95206.72;;;22.69
50206;BMP280;36098;48.390;10.856;2023-04-24T06:49:43;95208.06;;;22.67
50206;BMP280;36098;48.390;10.856;2023-04-24T06:52:08;95209.34;;;22.69
50206;BMP280;36098;48.390;10.856;2023-04-24T06:54:34;95211.97;;;22.69
50206;BMP280;36098;48.390;10.856;2023-04-24T06:57:00;95210.69;;;22.67
50206;BMP280;36098;48.390;10.856;2023-04-24T06:59:26;95214.88;;;22.68
50206;BMP280;36098;48.390;10.856;2023-04-24T07:01:51;95218.31;;;22.68
50206;BMP280;36098;48.390;10.856;2023-04-24T07:04:16;95217.78;;;22.66
50206;BMP280;36098;48.390;10.856;2023-04-24T07:06:42;95225.19;;;22.64
50206;BMP280;36098;48.390;10.856;2023-04-24T07:09:07;95233.56;;;22.66
50206;BMP280;36098;48.390;10.856;2023-04-24T07:11:33;95232.22;;;22.69
50206;BMP280;36098;48.390;10.856;2023-04-24T07:14:00;95240.41;;;22.67
50206;BMP280;36098;48.390;10.856;2023-04-24T07:16:25;95238.56;;;22.68
50206;BMP280;36098;48.390;10.856;2023-04-24T07:18:50;95236.44;;;22.70
50206;BMP280;36098;48.390;10.856;2023-04-24T07:21:16;95238.47;;;22.73
50206;BMP280;36098;48.390;10.856;2023-04-24T07:23:41;95248.16;;;22.77
50206;BMP280;36098;48.390;10.856;2023-04-24T07:26:07;95250.00;;;22.77
50206;BMP280;36098;48.390;10.856;2023-04-24T07:28:32;95256.63;;;22.74
50206;BMP280;36098;48.390;10.856;2023-04-24T07:30:57;95260.53;;;22.77
50206;BMP280;36098;48.390;10.856;2023-04-24T07:33:23;95267.88;;;22.80
50206;BMP280;36098;48.390;10.856;2023-04-24T07:35:48;95261.06;;;22.79
50206;BMP280;36098;48.390;10.856;2023-04-24T07:38:14;95267.56;;;22.81
50206;BMP280;36098;48.390;10.856;2023-04-24T07:40:39;95266.00;;;22.80
50206;BMP280;36098;48.390;10.856;2023-04-24T07:43:04;95277.34;;;22.81
50206;BMP280;36098;48.390;10.856;2023-04-24T07:45:29;95285.50;;;22.79
50206;BMP280;36098;48.390;10.856;2023-04-24T07:47:56;95279.66;;;22.82
50206;BMP280;36098;48.390;10.856;2023-04-24T07:50:21;95283.13;;;22.78
50206;BMP280;36098;48.390;10.856;2023-04-24T07:52:46;95269.56;;;22.71
50206;BMP280;36098;48.390;10.856;2023-04-24T07:55:12;95264.66;;;22.64
50206;BMP280;36098;48.390;10.856;2023-04-24T07:57:37;95268.00;;;22.70
50206;BMP280;36098;48.390;10.856;2023-04-24T08:00:03;95268.84;;;22.65
50206;BMP280;36098;48.390;10.856;2023-04-24T08:02:28;95276.47;;;22.67
50206;BMP280;36098;48.390;10.856;2023-04-24T08:04:54;95280.66;;;22.68
50206;BMP280;36098;48.390;10.856;2023-04-24T08:07:19;95280.41;;;22.69
50206;BMP280;36098;48.390;10.856;2023-04-24T08:09:44;95295.38;;;22.69
50206;BMP280;36098;48.390;10.856;2023-04-24T08:12:10;95293.25;;;22.71
50206;BMP280;36098;48.390;10.856;2023-04-24T08:14:35;95274.56;;;22.72
50206;BMP280;36098;48.390;10.856;2023-04-24T08:17:00;95280.66;;;22.68
50206;BMP280;36098;48.390;10.856;2023-04-24T08:19:26;95283.88;;;22.65
50206;BMP280;36098;48.390;10.856;2023-04-24T08:21:51;95282.81;;;22.66
50206;BMP280;36098;48.390;10.856;2023-04-24T08:24:16;95279.59;;;22.69
50206;BMP280;36098;48.390;10.856;2023-04-24T08:26:41;95278.25;;;22.71
50206;BMP280;36098;48.390;10.856;2023-04-24T08:29:07;95275.13;;;22.69
50206;BMP280;36098;48.390;10.856;2023-04-24T08:31:32;95273.03;;;22.66
50206;BMP280;36098;48.390;10.856;2023-04-24T08:33:58;95270.63;;;22.70
50206;BMP280;36098;48.390;10.856;2023-04-24T08:36:24;95265.69;;;22.68
50206;BMP280;36098;48.390;10.856;2023-04-24T08:38:50;95275.31;;;22.73
50206;BMP280;36098;48.390;10.856;2023-04-24T08:41:15;95277.47;;;22.71
50206;BMP280;36098;48.390;10.856;2023-04-24T08:43:42;95280.59;;;22.73
50206;BMP280;36098;48.390;10.856;2023-04-24T08:46:08;95280.59;;;22.73
50206;BMP280;36098;48.390;10.856;2023-04-24T08:48:34;95275.53;;;22.76
50206;BMP280;36098;48.390;10.856;2023-04-24T08:51:00;95279.03;;;22.72
50206;BMP280;36098;48.390;10.856;2023-04-24T08:53:26;95287.41;;;22.74
50206;BMP280;36098;48.390;10.856;2023-04-24T08:55:51;95294.81;;;22.72
50206;BMP280;36098;48.390;10.856;2023-04-24T08:58:18;95291.41;;;22.71
50206;BMP280;36098;48.390;10.856;2023-04-24T09:00:44;95291.69;;;22.70
50206;BMP280;36098;48.390;10.856;2023-04-24T09:03:13;95302.13;;;22.75
50206;BMP280;36098;48.390;10.856;2023-04-24T09:05:39;95298.44;;;22.76
50206;BMP280;36098;48.390;10.856;2023-04-24T09:08:05;95301.16;;;22.71
50206;BMP280;36098;48.390;10.856;2023-04-24T09:10:31;95302.78;;;22.85
50206;BMP280;36098;48.390;10.856;2023-04-24T09:12:59;95300.53;;;22.79
50206;BMP280;36098;48.390;10.856;2023-04-24T09:15:26;95302.94;;;22.75
50206;BMP280;36098;48.390;10.856;2023-04-24T09:17:52;95297.94;;;22.74
50206;BMP280;36098;48.390;10.856;2023-04-24T09:20:17;95295.63;;;22.72
50206;BMP280;36098;48.390;10.856;2023-04-24T09:22:42;95294.81;;;22.72
50206;BMP280;36098;48.390;10.856;2023-04-24T09:25:10;95291.41;;;22.71
50206;BMP280;36098;48.390;10.856;2023-04-24T09:27:41;95289.28;;;22.73
50206;BMP280;36098;48.390;10.856;2023-04-24T09:30:06;95307.59;;;22.97
50206;BMP280;36098;48.390;10.856;2023-04-24T09:32:32;95316.72;;;22.86
50206;BMP280;36098;48.390;10.856;2023-04-24T09:35:08;95309.34;;;22.88
50206;BMP280;36098;48.390;10.856;2023-04-24T09:37:37;95306.28;;;22.81
50206;BMP280;36098;48.390;10.856;2023-04-24T09:40:15;95299.38;;;22.85
50206;BMP280;36098;48.390;10.856;2023-04-24T09:42:45;95311.47;;;22.86
50206;BMP280;36098;48.390;10.856;2023-04-24T09:45:10;95313.03;;;22.87
50206;BMP280;36098;48.390;10.856;2023-04-24T09:47:37;95299.88;;;22.87
50206;BMP280;36098;48.390;10.856;2023-04-24T09:50:12;95293.03;;;22.86
50206;BMP280;36098;48.390;10.856;2023-04-24T09:52:41;95281.44;;;22.87
50206;BMP280;36098;48.390;10.856;2023-04-24T09:55:11;95283.59;;;22.85
50206;BMP280;36098;48.390;10.856;2023-04-24T09:57:40;95281.28;;;22.97
50206;BMP280;36098;48.390;10.856;2023-04-24T10:00:20;95276.81;;;22.97
50206;BMP280;36098;48.390;10.856;2023-04-24T10:03:00;95276.31;;;23.14
50206;BMP280;36098;48.390;10.856;2023-04-24T10:05:32;95298.50;;;23.26
50206;BMP280;36098;48.390;10.856;2023-04-24T10:08:00;95327.72;;;23.06
50206;BMP280;36098;48.390;10.856;2023-04-24T10:10:26;95333.78;;;23.07
50206;BMP280;36098;48.390;10.856;2023-04-24T10:12:51;95333.78;;;23.07
50206;BMP280;36098;48.390;10.856;2023-04-24T10:15:22;95330.09;;;23.08
50206;BMP280;36098;48.390;10.856;2023-04-24T10:18:00;95326.16;;;23.05
50206;BMP280;36098;48.390;10.856;2023-04-24T10:20:35;95326.47;;;23.22
50206;BMP280;36098;48.390;10.856;2023-04-24T10:23:19;95346.13;;;23.29
50206;BMP280;36098;48.390;10.856;2023-04-24T10:25:50;95348.97;;;23.33
50206;BMP280;36098;48.390;10.856;2023-04-24T10:28:23;95345.63;;;23.27
50206;BMP280;36098;48.390;10.856;2023-04-24T10:30:49;95347.34;;;23.19
50206;BMP280;36098;48.390;10.856;2023-04-24T10:33:15;95344.81;;;23.09
50206;BMP280;36098;48.390;10.856;2023-04-24T10:35:44;95342.84;;;23.01
50206;BMP280;36098;48.390;10.856;2023-04-24T10:38:15;95345.47;;;23.01
50206;BMP280;36098;48.390;10.856;2023-04-24T10:40:43;95338.63;;;23.36
50206;BMP280;36098;48.390;10.856;2023-04-24T10:43:09;95344.34;;;23.25
50206;BMP280;36098;48.390;10.856;2023-04-24T10:45:36;95345.78;;;23.49
50206;BMP280;36098;48.390;10.856;2023-04-24T10:50:29;95328.41;;;23.80
50206;BMP280;36098;48.390;10.856;2023-04-24T10:53:05;95325.28;;;23.78
50206;BMP280;36098;48.390;10.856;2023-04-24T10:55:44;95322.78;;;24.00
50206;BMP280;36098;48.390;10.856;2023-04-24T10:58:14;95331.56;;;23.96
50206;BMP280;36098;48.390;10.856;2023-04-24T11:00:41;95321.44;;;24.16
50206;BMP280;36098;48.390;10.856;2023-04-24T11:03:28;95323.38;;;24.24
50206;BMP280;36098;48.390;10.856;2023-04-24T11:08:26;95325.78;;;23.48
50206;BMP280;36098;48.390;10.856;2023-04-24T11:13:23;95332.38;;;22.96
50206;BMP280;36098;48.390;10.856;2023-04-24T11:18:39;95334.84;;;23.42
50206;BMP280;36098;48.390;10.856;2023-04-24T11:21:12;95324.06;;;23.26
50206;BMP280;36098;48.390;10.856;2023-04-24T11:23:43;95323.28;;;23.07
50206;BMP280;36098;48.390;10.856;2023-04-24T11:26:22;95325.97;;;23.02
50206;BMP280;36098;48.390;10.856;2023-04-24T11:29:07;95325.13;;;23.25
50206;BMP280;36098;48.390;10.856;2023-04-24T11:31:43;95326.56;;;23.94
50206;BMP280;36098;48.390;10.856;2023-04-24T11:34:14;95332.47;;;23.59
50206;BMP280;36098;48.390;10.856;2023-04-24T11:36:47;95328.59;;;23.38
50206;BMP280;36098;48.390;10.856;2023-04-24T11:39:15;95319.69;;;23.34
50206;BMP280;36098;48.390;10.856;2023-04-24T11:41:40;95321.81;;;23.32
50206;BMP280;36098;48.390;10.856;2023-04-24T11:44:06;95322.91;;;23.31
50206;BMP280;36098;48.390;10.856;2023-04-24T11:46:31;95323.41;;;23.33
50206;BMP280;36098;48.390;10.856;2023-04-24T11:49:02;95330.44;;;23.38
50206;BMP280;36098;48.390;10.856;2023-04-24T11:51:27;95333.66;;;23.35
50206;BMP280;36098;48.390;10.856;2023-04-24T11:53:56;95336.56;;;23.33
50206;BMP280;36098;48.390;10.856;2023-04-24T11:56:22;95336.56;;;23.33
50206;BMP280;36098;48.390;10.856;2023-04-24T11:58:50;95330.22;;;23.34
50206;BMP280;36098;48.390;10.856;2023-04-24T12:01:24;95327.16;;;23.91
50206;BMP280;36098;48.390;10.856;2023-04-24T12:03:58;95324.06;;;23.57
50206;BMP280;36098;48.390;10.856;2023-04-24T12:06:27;95355.25;;;23.50
50206;BMP280;36098;48.390;10.856;2023-04-24T12:08:54;95353.06;;;23.57
50206;BMP280;36098;48.390;10.856;2023-04-24T12:11:25;95364.28;;;23.63
50206;BMP280;36098;48.390;10.856;2023-04-24T12:13:56;95362.34;;;23.68
50206;BMP280;36098;48.390;10.856;2023-04-24T12:16:25;95363.31;;;23.72
50206;BMP280;36098;48.390;10.856;2023-04-24T12:18:51;95355.53;;;23.81
50206;BMP280;36098;48.390;10.856;2023-04-24T12:21:20;95355.84;;;23.79
50206;BMP280;36098;48.390;10.856;2023-04-24T12:23:46;95354.75;;;23.80
50206;BMP280;36098;48.390;10.856;2023-04-24T12:26:19;95360.03;;;23.80
50206;BMP280;36098;48.390;10.856;2023-04-24T12:28:48;95362.13;;;23.83
50206;BMP280;36098;48.390;10.856;2023-04-24T12:31:16;95355.28;;;23.82
50206;BMP280;36098;48.390;10.856;2023-04-24T12:33:51;95357.34;;;23.85
50206;BMP280;36098;48.390;10.856;2023-04-24T12:36:20;95338.28;;;23.88
50206;BMP280;36098;48.390;10.856;2023-04-24T12:38:46;95365.63;;;23.92
50206;BMP280;36098;48.390;10.856;2023-04-24T12:41:12;95355.03;;;23.97
50206;BMP280;36098;48.390;10.856;2023-04-24T12:43:38;95354.22;;;23.97
50206;BMP280;36098;48.390;10.856;2023-04-24T12:46:03;95355.59;;;23.94
50206;BMP280;36098;48.390;10.856;2023-04-24T12:48:32;95359.13;;;23.90
50206;BMP280;36098;48.390;10.856;2023-04-24T12:50:59;95355.78;;;23.84
50206;BMP280;36098;48.390;10.856;2023-04-24T12:53:28;95369.44;;;23.86
50206;BMP280;36098;48.390;10.856;2023-04-24T12:55:54;95354.91;;;23.89
50206;BMP280;36098;48.390;10.856;2023-04-24T12:58:27;95367.19;;;23.93
50206;BMP280;36098;48.390;10.856;2023-04-24T13:00:52;95377.47;;;23.95
50206;BMP280;36098;48.390;10.856;2023-04-24T13:03:20;95382.75;;;23.95
50206;BMP280;36098;48.390;10.856;2023-04-24T13:05:45;95385.28;;;24.00
50206;BMP280;36098;48.390;10.856;2023-04-24T13:08:10;95381.56;;;24.01
50206;BMP280;36098;48.390;10.856;2023-04-24T13:10:40;95381.09;;;24.12
50206;BMP280;36098;48.390;10.856;2023-04-24T13:13:08;95379.06;;;24.23
50206;BMP280;36098;48.390;10.856;2023-04-24T13:15:33;95372.44;;;24.25
50206;BMP280;36098;48.390;10.856;2023-04-24T13:18:02;95367.03;;;24.17
50206;BMP280;36098;48.390;10.856;2023-04-24T13:20:29;95365.97;;;24.18
50206;BMP280;36098;48.390;10.856;2023-04-24T13:22:57;95375.94;;;24.21
50206;BMP280;36098;48.390;10.856;2023-04-24T13:25:25;95364.50;;;24.25
50206;BMP280;36098;48.390;10.856;2023-04-24T13:27:51;95377.13;;;24.28
50206;BMP280;36098;48.390;10.856;2023-04-24T13:30:22;95376.53;;;24.31
50206;BMP280;36098;48.390;10.856;2023-04-24T13:32:47;95371.25;;;24.18
50206;BMP280;36098;48.390;10.856;2023-04-24T13:35:21;95367.91;;;23.99
50206;BMP280;36098;48.390;10.856;2023-04-24T13:37:46;95372.97;;;23.95
50206;BMP280;36098;48.390;10.856;2023-04-24T13:40:16;95373.38;;;24.02
50206;BMP280;36098;48.390;10.856;2023-04-24T13:42:45;95376.22;;;24.06
50206;BMP280;36098;48.390;10.856;2023-04-24T13:45:11;95389.13;;;24.07
50206;BMP280;36098;48.390;10.856;2023-04-24T13:47:43;95379.44;;;24.03
50206;BMP280;36098;48.390;10.856;2023-04-24T13:50:09;95393.88;;;23.92
50206;BMP280;36098;48.390;10.856;2023-04-24T13:52:38;95393.44;;;23.85
50206;BMP280;36098;48.390;10.856;2023-04-24T13:55:05;95385.06;;;23.83
50206;BMP280;36098;48.390;10.856;2023-04-24T13:57:35;95381.72;;;23.77
50206;BMP280;36098;48.390;10.856;2023-04-24T14:00:18;95385.69;;;23.75
50206;BMP280;36098;48.390;10.856;2023-04-24T14:02:47;95392.81;;;23.74
50206;BMP280;36098;48.390;10.856;2023-04-24T14:05:15;95387.75;;;23.78
50206;BMP280;36098;48.390;10.856;2023-04-24T14:07:40;95392.25;;;23.77
50206;BMP280;36098;48.390;10.856;2023-04-24T14:10:06;95385.41;;;23.76